Time;durP1;ratioP1;P1;durP2;ratioP2;P2;SDS_P1;SDS_P2;PMS_P1;PMS_P2;Temp;Humidity;BMP_temperature;BMP_pressure;BME280_temperature;BME280_humidity;BME280_pressure;Samples;Min_cycle;Max_cycle;Signal;HPM_P1;HPM_P2
2023/01/24 00:00:50;;;;;;;9.23;5.87;;;;;;;-0.69;100.00;103320.53;5041178;28;20056;-83
2023/01/24 00:03:17;;;;;;;10.17;6.03;;;;;;;-0.45;100.00;103315.19;5024837;28;20099;-82
2023/01/24 00:05:46;;;;;;;10.03;5.80;;;;;;;-0.56;100.00;103314.50;5024135;28;20046;-82
2023/01/24 00:08:14;;;;;;;9.93;5.93;;;;;;;-0.76;100.00;103322.59;4992131;28;20045;-82
2023/01/24 00:10:41;;;;;;;9.70;5.77;;;;;;;-0.82;100.00;103307.53;5022933;28;20042;-81
2023/01/24 00:13:10;;;;;;;9.63;5.73;;;;;;;-0.75;100.00;103317.56;5008985;28;20060;-82
2023/01/24 00:15:37;;;;;;;9.00;5.73;;;;;;;-0.68;100.00;103313.66;4988845;28;20536;-83
2023/01/24 00:18:03;;;;;;;8.63;5.67;;;;;;;-0.63;100.00;103309.69;5041392;28;20060;-81
2023/01/24 00:20:30;;;;;;;10.77;6.07;;;;;;;-0.71;100.00;103313.44;5025472;28;20098;-81
2023/01/24 00:22:57;;;;;;;9.83;5.93;;;;;;;-0.72;100.00;103303.88;5024923;28;20038;-81
2023/01/24 00:25:23;;;;;;;9.47;5.83;;;;;;;-0.70;100.00;103303.16;5024368;28;20107;-83
2023/01/24 00:27:50;;;;;;;8.17;5.50;;;;;;;-0.72;100.00;103304.78;5008774;28;20113;-81
2023/01/24 00:30:17;;;;;;;9.83;6.07;;;;;;;-0.81;100.00;103291.16;5008848;28;20390;-81
2023/01/24 00:32:43;;;;;;;6.70;5.70;;;;;;;-0.83;100.00;103305.75;5025063;28;20048;-82
2023/01/24 00:35:10;;;;;;;10.07;6.00;;;;;;;-0.64;100.00;103300.09;5025863;28;20144;-81
2023/01/24 00:37:37;;;;;;;11.23;6.80;;;;;;;-0.46;100.00;103303.03;5008359;28;20054;-81
2023/01/24 00:40:04;;;;;;;9.90;6.47;;;;;;;-0.59;100.00;103304.81;5025547;28;20593;-81
2023/01/24 00:42:31;;;;;;;11.60;7.20;;;;;;;-0.49;100.00;103306.31;5025210;28;20063;-81
2023/01/24 00:44:57;;;;;;;12.13;6.60;;;;;;;-0.58;100.00;103314.41;5008789;28;20054;-81
2023/01/24 00:47:24;;;;;;;10.73;7.13;;;;;;;-0.68;100.00;103305.88;4992397;28;20045;-82
2023/01/24 00:49:51;;;;;;;9.40;5.73;;;;;;;-0.54;100.00;103304.19;5026431;28;20124;-81
2023/01/24 00:52:18;;;;;;;12.13;6.33;;;;;;;-0.68;100.00;103317.13;5008998;28;20041;-81
2023/01/24 00:54:45;;;;;;;9.50;6.60;;;;;;;-0.57;100.00;103318.78;5026434;28;20083;-81
2023/01/24 00:57:12;;;;;;;9.50;6.20;;;;;;;-0.65;100.00;103321.66;5010531;28;20109;-81
2023/01/24 00:59:38;;;;;;;9.97;6.50;;;;;;;-0.60;100.00;103312.47;5008552;28;20113;-81
2023/01/24 01:02:07;;;;;;;11.17;6.40;;;;;;;-0.62;100.00;103321.88;5007318;28;20037;-80
2023/01/24 01:04:34;;;;;;;11.27;6.80;;;;;;;-0.71;100.00;103327.31;5022508;28;20471;-81
2023/01/24 01:07:00;;;;;;;10.30;6.30;;;;;;;-0.78;100.00;103319.91;5005276;28;20049;-80
2023/01/24 01:09:27;;;;;;;9.00;5.97;;;;;;;-0.97;100.00;103312.56;5020822;28;20047;-81
2023/01/24 01:11:54;;;;;;;9.60;6.30;;;;;;;-0.91;100.00;103322.50;4993766;28;20048;-80
2023/01/24 01:14:20;;;;;;;10.80;6.17;;;;;;;-0.93;100.00;103319.75;5021441;28;20057;-81
2023/01/24 01:16:47;;;;;;;10.40;6.10;;;;;;;-1.07;100.00;103323.13;5037567;28;20073;-81
2023/01/24 01:19:13;;;;;;;13.00;7.73;;;;;;;-1.02;100.00;103313.94;5002165;28;20049;-81
2023/01/24 01:21:44;;;;;;;11.53;6.80;;;;;;;-0.73;100.00;103308.16;5021479;28;20132;-81
2023/01/24 01:24:10;;;;;;;10.57;6.73;;;;;;;-0.68;100.00;103309.34;5002942;28;20756;-81
2023/01/24 01:26:37;;;;;;;11.37;6.60;;;;;;;-0.71;100.00;103303.97;5027304;28;20080;-80
2023/01/24 01:29:04;;;;;;;9.47;6.30;;;;;;;-0.76;100.00;103312.22;5017968;28;20099;-81
2023/01/24 01:31:31;;;;;;;9.97;6.30;;;;;;;-0.72;100.00;103309.97;5033663;28;20372;-80
2023/01/24 01:33:58;;;;;;;10.90;6.60;;;;;;;-0.77;100.00;103320.81;4997187;28;20064;-81
2023/01/24 01:36:24;;;;;;;9.30;6.10;;;;;;;-0.88;100.00;103318.41;5017132;28;20053;-81
2023/01/24 01:38:52;;;;;;;9.13;5.97;;;;;;;-0.89;100.00;103320.88;4996849;28;20041;-80
2023/01/24 01:41:19;;;;;;;9.67;6.00;;;;;;;-0.81;100.00;103327.50;4981910;28;20065;-80
2023/01/24 01:46:43;;;;;;;12.77;7.30;;;;;;;-0.85;100.00;103325.47;5015441;28;20034;-79
2023/01/24 01:49:18;;;;;;;10.97;6.93;;;;;;;-0.93;100.00;103322.34;4995578;28;20045;-79
2023/01/24 01:51:47;;;;;;;9.10;6.10;;;;;;;-0.86;100.00;103324.56;5002038;28;20045;-79
2023/01/24 01:54:25;;;;;;;9.67;6.57;;;;;;;-0.88;100.00;103322.69;5005070;28;20033;-80
2023/01/24 01:56:56;;;;;;;11.07;6.33;;;;;;;-0.75;100.00;103324.44;5002964;28;20126;-80
2023/01/24 01:59:26;;;;;;;10.00;5.97;;;;;;;-0.95;100.00;103326.53;5048713;28;20045;-79
2023/01/24 02:01:55;;;;;;;11.20;7.03;;;;;;;-0.98;100.00;103320.25;5007131;28;20095;-79
2023/01/24 02:04:28;;;;;;;10.63;7.07;;;;;;;-0.91;100.00;103319.88;5019368;28;20056;-79
2023/01/24 02:07:15;;;;;;;11.77;6.97;;;;;;;-0.90;100.00;103324.28;5034913;23;20047;-84
2023/01/24 02:09:44;;;;;;;9.20;6.50;;;;;;;-1.13;100.00;103321.00;4954313;28;20072;-84
2023/01/24 02:12:26;;;;;;;11.03;6.63;;;;;;;-1.19;100.00;103325.75;4927161;28;20624;-82
2023/01/24 02:17:54;;;;;;;11.60;7.37;;;;;;;-1.13;100.00;103310.59;4960528;28;20090;-82
2023/01/24 02:20:28;;;;;;;10.77;6.90;;;;;;;-0.99;100.00;103314.19;4958359;28;20057;-82
2023/01/24 02:23:04;;;;;;;11.43;6.88;;;;;;;-0.85;100.00;103308.22;4969238;28;20484;-81
2023/01/24 02:25:42;;;;;;;10.33;5.90;;;;;;;-0.91;100.00;103312.09;4938186;29;20791;-81
2023/01/24 02:28:09;;;;;;;12.53;6.67;;;;;;;-0.96;100.00;103306.59;4957046;28;20043;-82
2023/01/24 02:30:36;;;;;;;14.43;7.10;;;;;;;-1.04;100.00;103304.25;4940597;28;20105;-81
2023/01/24 02:33:19;;;;;;;11.30;6.70;;;;;;;-0.97;100.00;103303.91;4949479;28;20421;-81
2023/01/24 02:35:47;;;;;;;11.47;6.40;;;;;;;-1.10;100.00;103309.91;4961111;28;20042;-82
2023/01/24 02:38:18;;;;;;;12.50;7.80;;;;;;;-1.07;100.00;103297.19;4969766;28;20055;-81
2023/01/24 02:40:45;;;;;;;12.73;6.70;;;;;;;-1.04;100.00;103302.56;4967886;28;20512;-81
2023/01/24 02:43:14;;;;;;;10.93;6.53;;;;;;;-0.85;100.00;103299.53;4969233;28;20044;-81
2023/01/24 02:45:40;;;;;;;9.73;6.53;;;;;;;-0.87;100.00;103293.34;4954487;28;20051;-81
2023/01/24 02:48:07;;;;;;;12.53;7.07;;;;;;;-0.99;100.00;103293.41;4972359;28;20061;-81
2023/01/24 02:53:29;;;;;;;14.87;8.20;;;;;;;-1.09;100.00;103292.66;4972751;28;20042;-80
2023/01/24 02:58:43;;;;;;;15.37;8.30;;;;;;;-0.93;100.00;103291.22;4970811;28;20030;-82
2023/01/24 03:01:09;;;;;;;13.40;7.87;;;;;;;-1.15;100.00;103293.16;4956640;28;20504;-81
2023/01/24 03:03:37;;;;;;;17.00;8.77;;;;;;;-1.22;100.00;103284.03;4971776;28;20130;-81
2023/01/24 03:06:04;;;;;;;18.50;8.97;;;;;;;-1.23;100.00;103292.63;4940463;28;20460;-81
2023/01/24 03:08:32;;;;;;;16.67;8.43;;;;;;;-1.25;100.00;103291.63;4972443;28;20066;-82
2023/01/24 03:10:59;;;;;;;17.33;8.30;;;;;;;-1.23;100.00;103287.44;4972205;28;20066;-81
2023/01/24 03:35:31;;;;;;;23.20;10.90;;;;;;;-1.20;100.00;103300.59;4957667;28;20093;-84
2023/01/24 03:40:44;;;;;;;22.63;10.77;;;;;;;-1.02;100.00;103300.97;4963911;28;20054;-81
2023/01/24 03:43:10;;;;;;;22.87;10.57;;;;;;;-1.20;100.00;103292.81;4969406;28;20042;-81
2023/01/24 03:45:39;;;;;;;28.50;12.10;;;;;;;-1.35;100.00;103298.63;4932213;28;20043;-82
2023/01/24 03:48:14;;;;;;;30.50;13.60;;;;;;;-1.20;100.00;103299.69;4953811;28;20127;-82
2023/01/24 03:53:29;;;;;;;29.20;13.27;;;;;;;-1.21;100.00;103306.59;4963005;28;20444;-81
2023/01/24 03:55:58;;;;;;;28.97;13.50;;;;;;;-1.31;100.00;103306.75;4954214;28;20039;-81
2023/01/24 03:58:26;;;;;;;32.00;14.40;;;;;;;-1.01;100.00;103317.44;4954977;28;20102;-81
2023/01/24 04:00:53;;;;;;;33.60;14.47;;;;;;;-1.06;100.00;103313.63;4950867;28;20162;-81
2023/01/24 04:03:20;;;;;;;33.73;14.33;;;;;;;-1.18;100.00;103306.81;4967043;28;20098;-81
2023/01/24 04:05:48;;;;;;;38.93;15.97;;;;;;;-1.17;100.00;103303.44;4970719;28;20793;-81
2023/01/24 04:08:15;;;;;;;37.23;14.53;;;;;;;-1.17;100.00;103307.72;4954469;28;20046;-81
2023/01/24 04:10:43;;;;;;;36.03;15.60;;;;;;;-1.35;100.00;103299.53;4967099;28;20511;-81
2023/01/24 04:13:10;;;;;;;41.47;16.53;;;;;;;-1.26;100.00;103301.84;4956581;28;20515;-81
2023/01/24 04:15:37;;;;;;;51.07;20.57;;;;;;;-1.19;100.00;103304.09;4952611;28;20047;-81
2023/01/24 04:18:04;;;;;;;43.13;16.90;;;;;;;-1.33;100.00;103303.16;4953454;28;20058;-81
2023/01/24 04:20:34;;;;;;;50.37;20.17;;;;;;;-1.17;100.00;103306.03;4950625;28;20050;-81
2023/01/24 04:23:02;;;;;;;44.60;17.00;;;;;;;-1.10;100.00;103304.72;4964984;28;20062;-81
2023/01/24 04:25:29;;;;;;;53.70;19.90;;;;;;;-1.16;100.00;103301.72;4948515;28;20039;-81
2023/01/24 04:27:56;;;;;;;48.90;20.33;;;;;;;-1.30;100.00;103298.16;4969819;28;20681;-81
2023/01/24 04:30:23;;;;;;;52.33;18.90;;;;;;;-1.32;100.00;103301.47;4970667;28;20062;-81
2023/01/24 04:32:50;;;;;;;51.30;20.53;;;;;;;-1.31;100.00;103298.06;4938133;28;20049;-81
2023/01/24 04:35:19;;;;;;;55.13;19.53;;;;;;;-1.40;100.00;103287.94;4970107;28;20056;-81
2023/01/24 04:37:47;;;;;;;53.77;19.67;;;;;;;-1.40;100.00;103289.66;4941102;28;20129;-81
2023/01/24 04:40:14;;;;;;;55.67;20.23;;;;;;;-1.39;100.00;103294.94;4955344;28;20046;-83
2023/01/24 04:42:42;;;;;;;57.17;22.30;;;;;;;-1.40;100.00;103298.31;4952522;28;20126;-83
2023/01/24 04:45:09;;;;;;;60.17;21.07;;;;;;;-1.27;100.00;103290.59;4951320;28;20133;-83
2023/01/24 04:47:35;;;;;;;56.33;21.80;;;;;;;-1.23;100.00;103290.03;4952414;28;20062;-83
2023/01/24 04:50:03;;;;;;;61.97;23.57;;;;;;;-1.31;100.00;103293.78;4949737;29;20043;-83
2023/01/24 04:52:29;;;;;;;70.07;24.50;;;;;;;-1.20;100.00;103295.41;4948873;28;20050;-83
2023/01/24 04:54:56;;;;;;;74.07;24.00;;;;;;;-1.23;100.00;103289.13;4948366;28;20054;-83
2023/01/24 04:57:23;;;;;;;68.57;25.00;;;;;;;-1.40;100.00;103287.94;4949360;28;20591;-83
2023/01/24 04:59:49;;;;;;;71.77;26.50;;;;;;;-1.30;100.00;103287.78;4955447;28;20040;-83
2023/01/24 05:02:16;;;;;;;69.03;24.27;;;;;;;-1.32;100.00;103288.50;4931540;29;20051;-82
2023/01/24 05:04:43;;;;;;;80.20;27.37;;;;;;;-1.42;100.00;103287.84;4936846;28;20054;-83
2023/01/24 05:07:10;;;;;;;68.20;26.67;;;;;;;-1.47;100.00;103286.63;4953335;28;20049;-83
2023/01/24 05:09:37;;;;;;;71.00;25.30;;;;;;;-1.28;100.00;103286.19;4938138;28;20049;-84
2023/01/24 05:12:04;;;;;;;83.03;26.53;;;;;;;-1.34;100.00;103290.97;4937406;28;20054;-82
2023/01/24 05:14:30;;;;;;;67.07;25.83;;;;;;;-1.46;100.00;103290.09;4953819;28;20045;-83
2023/01/24 05:16:57;;;;;;;78.40;28.53;;;;;;;-1.33;100.00;103286.69;4954424;28;20077;-83
2023/01/24 05:19:24;;;;;;;75.20;27.57;;;;;;;-1.14;100.00;103287.16;4953631;28;20051;-83
2023/01/24 05:21:51;;;;;;;74.37;27.67;;;;;;;-1.30;100.00;103289.47;4938689;29;20047;-83
2023/01/24 05:24:18;;;;;;;71.60;27.67;;;;;;;-1.41;100.00;103291.34;4938361;29;20051;-83
2023/01/24 05:26:45;;;;;;;80.33;26.90;;;;;;;-1.27;100.00;103295.78;4971782;28;20098;-83
2023/01/24 05:29:11;;;;;;;71.60;28.80;;;;;;;-1.34;100.00;103293.56;4957748;28;20045;-83
2023/01/24 05:31:40;;;;;;;67.07;26.03;;;;;;;-1.40;100.00;103300.91;4974163;28;20057;-83
2023/01/24 05:34:06;;;;;;;84.90;28.27;;;;;;;-1.25;100.00;103304.59;4957856;28;20074;-83
2023/01/24 05:36:33;;;;;;;89.40;29.13;;;;;;;-1.25;100.00;103312.38;4958824;28;20039;-83
2023/01/24 05:39:00;;;;;;;72.83;26.67;;;;;;;-1.34;100.00;103316.00;4958207;28;20039;-83
2023/01/24 05:41:27;;;;;;;69.93;28.60;;;;;;;-1.29;100.00;103318.13;4939630;28;20051;-81
2023/01/24 05:43:53;;;;;;;77.90;27.53;;;;;;;-1.43;100.00;103319.75;4942388;28;20047;-81
2023/01/24 05:46:21;;;;;;;78.93;29.67;;;;;;;-1.47;100.00;103322.91;4974657;28;20043;-81
2023/01/24 05:48:48;;;;;;;75.00;28.90;;;;;;;-1.48;100.00;103317.63;4944395;28;20388;-81
2023/01/24 05:51:17;;;;;;;79.83;27.87;;;;;;;-1.21;100.00;103322.16;4957223;29;20051;-82
2023/01/24 05:53:44;;;;;;;78.93;28.37;;;;;;;-1.34;100.00;103314.31;4940670;29;20047;-81
2023/01/24 05:56:13;;;;;;;69.40;24.73;;;;;;;-1.37;100.00;103314.09;4940536;29;20047;-81
2023/01/24 05:58:41;;;;;;;82.33;27.10;;;;;;;-1.34;100.00;103303.94;4956227;28;20534;-81
2023/01/24 06:01:12;;;;;;;79.40;26.27;;;;;;;-1.26;100.00;103313.16;4958650;28;20106;-81
2023/01/24 06:03:40;;;;;;;74.67;26.93;;;;;;;-1.38;100.00;103309.69;4959371;28;20039;-81
2023/01/24 06:06:09;;;;;;;81.93;26.67;;;;;;;-1.42;100.00;103311.19;4956455;28;20046;-81
2023/01/24 06:08:35;;;;;;;72.97;28.27;;;;;;;-1.33;100.00;103310.94;4945631;29;20044;-81
2023/01/24 06:11:04;;;;;;;87.87;28.33;;;;;;;-1.27;100.00;103318.22;4973049;28;20042;-81
2023/01/24 06:13:31;;;;;;;76.73;28.70;;;;;;;-1.11;100.00;103328.88;4942463;28;20049;-81
2023/01/24 06:16:03;;;;;;;70.60;25.57;;;;;;;-1.27;100.00;103329.50;4973805;28;20050;-81
2023/01/24 06:18:30;;;;;;;72.17;25.57;;;;;;;-1.33;100.00;103335.97;4973775;28;20043;-81
2023/01/24 06:20:57;;;;;;;88.20;31.43;;;;;;;-1.30;100.00;103339.66;4952918;28;20047;-81
2023/01/24 06:23:26;;;;;;;84.87;29.90;;;;;;;-1.03;100.00;103344.97;4955970;28;20034;-81
2023/01/24 06:25:53;;;;;;;70.23;26.90;;;;;;;-1.23;100.00;103339.31;4956896;28;20051;-81
2023/01/24 06:28:20;;;;;;;67.87;24.50;;;;;;;-1.32;100.00;103343.84;4972908;28;20050;-81
2023/01/24 06:30:53;;;;;;;75.17;26.13;;;;;;;-1.22;100.00;103343.69;4940871;28;20065;-81
2023/01/24 06:33:38;;;;;;;89.87;27.47;;;;;;;-1.03;100.00;103342.38;4957277;28;20043;-82
2023/01/24 06:36:27;;;;;;;64.90;24.80;;;;;;;-1.27;100.00;103347.66;4956776;28;20105;-81
2023/01/24 06:38:54;;;;;;;71.57;24.53;;;;;;;-1.29;100.00;103349.25;4944579;28;20066;-82
2023/01/24 06:41:21;;;;;;;75.63;25.47;;;;;;;-0.92;100.00;103351.84;4954587;28;20051;-81
2023/01/24 06:43:48;;;;;;;63.83;23.27;;;;;;;-0.86;100.00;103360.00;4957005;28;20416;-82
2023/01/24 06:46:15;;;;;;;69.60;25.40;;;;;;;-1.20;100.00;103359.34;4940981;28;20049;-81
2023/01/24 06:48:43;;;;;;;52.70;19.30;;;;;;;-1.17;100.00;103349.22;4954081;28;20489;-81
2023/01/24 06:51:13;;;;;;;59.13;21.70;;;;;;;-1.04;100.00;103361.34;4923269;29;20051;-80
2023/01/24 06:53:40;;;;;;;56.10;22.80;;;;;;;-1.26;100.00;103346.88;4985604;28;20039;-80
2023/01/24 06:56:08;;;;;;;55.27;21.67;;;;;;;-1.36;100.00;103359.06;4954512;28;20066;-81
2023/01/24 06:58:35;;;;;;;45.70;17.93;;;;;;;-1.17;100.00;103359.59;4929072;28;20041;-81
2023/01/24 07:01:01;;;;;;;52.57;19.43;;;;;;;-1.04;100.00;103363.94;4955133;28;20039;-80
2023/01/24 07:03:28;;;;;;;55.50;19.20;;;;;;;-1.12;100.00;103363.41;4972507;28;20509;-82
2023/01/24 07:05:55;;;;;;;45.93;18.47;;;;;;;-1.25;100.00;103366.84;4957010;28;20492;-82
2023/01/24 07:08:21;;;;;;;41.53;17.67;;;;;;;-1.18;100.00;103369.06;4952035;28;20381;-82
2023/01/24 07:10:48;;;;;;;46.00;16.70;;;;;;;-0.97;100.00;103371.34;4953463;28;20141;-82
2023/01/24 07:13:15;;;;;;;44.63;17.77;;;;;;;-1.18;100.00;103370.72;4951006;28;20062;-83
2023/01/24 07:15:42;;;;;;;53.00;17.53;;;;;;;-1.28;100.00;103368.28;4962592;28;20101;-83
2023/01/24 07:18:17;;;;;;;38.20;17.47;;;;;;;-1.46;100.00;103366.19;4954254;28;20513;-83
2023/01/24 07:20:44;;;;;;;42.60;18.00;;;;;;;-1.21;100.00;103374.03;4956140;28;20043;-82
2023/01/24 07:23:32;;;;;;;42.30;16.07;;;;;;;-1.07;100.00;103377.59;4973209;28;20575;-82
2023/01/24 07:25:59;;;;;;;43.73;17.43;;;;;;;-1.13;100.00;103380.66;4923459;28;20628;-82
2023/01/24 07:28:26;;;;;;;42.03;16.10;;;;;;;-1.33;100.00;103380.94;4956123;28;20050;-83
2023/01/24 07:30:53;;;;;;;41.10;15.43;;;;;;;-1.34;100.00;103381.75;4960821;28;20516;-82
2023/01/24 07:33:19;;;;;;;41.33;16.00;;;;;;;-1.12;100.00;103391.94;4959122;28;20054;-82
2023/01/24 07:35:46;;;;;;;36.10;14.57;;;;;;;-1.30;100.00;103394.13;4956408;28;20058;-82
2023/01/24 07:38:13;;;;;;;35.60;14.03;;;;;;;-1.36;100.00;103406.63;4972786;28;20039;-83
2023/01/24 07:40:41;;;;;;;34.63;15.83;;;;;;;-1.30;100.00;103396.72;4955999;28;20061;-82
2023/01/24 07:43:08;;;;;;;35.80;14.60;;;;;;;-1.12;100.00;103394.53;4939947;29;20047;-83
2023/01/24 07:45:35;;;;;;;30.13;13.67;;;;;;;-1.25;100.00;103394.47;4974743;28;20042;-81
2023/01/24 07:48:02;;;;;;;36.03;14.17;;;;;;;-1.11;100.00;103396.31;4972835;28;20518;-83
2023/01/24 07:50:31;;;;;;;33.20;12.73;;;;;;;-1.06;100.00;103397.56;4957402;28;20094;-82
2023/01/24 07:52:59;;;;;;;28.97;13.27;;;;;;;-1.08;100.00;103393.06;4942102;29;20051;-82
2023/01/24 07:55:26;;;;;;;29.97;12.80;;;;;;;-1.10;100.00;103392.03;4937282;29;20463;-83
2023/01/24 07:58:00;;;;;;;29.53;12.00;;;;;;;-1.10;100.00;103398.13;4958832;28;20066;-81
2023/01/24 08:00:27;;;;;;;27.58;13.32;;;;;;;-1.13;100.00;103388.44;4955809;28;20098;-82
2023/01/24 08:02:54;;;;;;;34.73;14.77;;;;;;;-1.05;100.00;103394.16;4964034;28;20067;-83
2023/01/24 08:05:21;;;;;;;41.03;15.10;;;;;;;-0.96;100.00;103397.41;4939745;28;20086;-82
2023/01/24 08:07:48;;;;;;;28.30;13.33;;;;;;;-0.74;100.00;103391.13;5030950;23;20041;-80
2023/01/24 08:10:14;;;;;;;35.53;13.57;;;;;;;-0.78;100.00;103391.69;4985126;28;20042;-80
2023/01/24 08:12:41;;;;;;;29.53;13.10;;;;;;;-0.93;100.00;103412.28;4988684;28;20092;-79
2023/01/24 08:15:08;;;;;;;34.27;13.93;;;;;;;-0.60;100.00;103400.75;5000063;28;20372;-79
2023/01/24 08:17:36;;;;;;;32.53;13.87;;;;;;;-0.55;100.00;103411.47;4968359;28;20060;-79
2023/01/24 08:20:06;;;;;;;28.33;12.90;;;;;;;-0.81;100.00;103402.78;5002176;28;20422;-80
2023/01/24 08:22:33;;;;;;;36.00;15.33;;;;;;;-0.73;100.00;103405.91;4983063;28;20042;-79
2023/01/24 08:25:01;;;;;;;46.03;16.70;;;;;;;-0.71;100.00;103405.22;4960370;28;20097;-80
2023/01/24 08:27:27;;;;;;;33.53;16.13;;;;;;;-0.64;100.00;103411.72;4998247;28;20041;-80
2023/01/24 08:29:54;;;;;;;28.23;11.73;;;;;;;-0.65;100.00;103402.16;5012416;28;20050;-79
2023/01/24 08:32:21;;;;;;;36.87;14.60;;;;;;;-0.72;100.00;103408.59;5004087;28;20049;-79
2023/01/24 08:34:47;;;;;;;32.67;14.10;;;;;;;-0.60;100.00;103406.84;4964740;28;20478;-79
2023/01/24 08:37:14;;;;;;;36.90;14.93;;;;;;;-0.45;100.00;103408.69;4980378;28;20038;-79
2023/01/24 08:39:41;;;;;;;33.23;14.27;;;;;;;-0.64;100.00;103412.63;5011293;28;20096;-79
2023/01/24 08:42:08;;;;;;;25.50;12.60;;;;;;;-0.74;100.00;103415.38;4979875;28;20447;-79
2023/01/24 08:44:35;;;;;;;29.83;13.13;;;;;;;-0.77;100.00;103419.44;4995351;28;20037;-79
2023/01/24 08:47:02;;;;;;;33.60;13.40;;;;;;;-0.48;100.00;103417.19;4978851;28;20049;-78
2023/01/24 08:49:28;;;;;;;34.87;13.30;;;;;;;-0.47;100.00;103415.50;4960812;28;20458;-79
2023/01/24 08:51:58;;;;;;;30.13;13.20;;;;;;;-0.34;100.00;103424.22;4995705;28;20116;-79
2023/01/24 08:54:26;;;;;;;36.17;14.37;;;;;;;-0.52;100.00;103414.25;4992287;28;20034;-79
2023/01/24 08:56:53;;;;;;;27.67;13.57;;;;;;;-0.35;100.00;103406.81;4969022;28;20044;-79
2023/01/24 08:59:20;;;;;;;34.73;13.37;;;;;;;-0.37;100.00;103405.81;4962783;28;20049;-80
2023/01/24 09:01:47;;;;;;;34.03;12.27;;;;;;;-0.51;100.00;103414.34;4978183;28;20204;-79
2023/01/24 09:04:14;;;;;;;32.43;12.27;;;;;;;-0.43;100.00;103418.38;4972692;28;20049;-79
2023/01/24 09:06:40;;;;;;;28.70;12.33;;;;;;;-0.40;100.00;103423.81;4994609;28;20434;-79
2023/01/24 09:09:07;;;;;;;29.27;13.67;;;;;;;-0.59;100.00;103416.47;4962360;28;20399;-80
2023/01/24 09:11:34;;;;;;;30.53;12.87;;;;;;;-0.49;100.00;103417.09;4977107;28;20354;-79
2023/01/24 09:14:00;;;;;;;33.37;11.67;;;;;;;-0.41;100.00;103421.13;4960315;28;20038;-80
2023/01/24 09:16:27;;;;;;;26.13;12.20;;;;;;;-0.46;100.00;103412.09;4976417;28;20042;-79
2023/01/24 09:18:54;;;;;;;27.73;11.83;;;;;;;-0.51;100.00;103408.25;4962988;28;20045;-79
2023/01/24 09:21:21;;;;;;;24.03;10.77;;;;;;;-0.41;100.00;103415.91;4985102;28;20105;-79
2023/01/24 09:23:48;;;;;;;24.50;10.43;;;;;;;-0.40;100.00;103412.53;4976790;28;20057;-81
2023/01/24 09:26:15;;;;;;;20.90;10.73;;;;;;;-0.38;100.00;103410.91;4992016;28;20073;-79
2023/01/24 09:28:44;;;;;;;25.67;12.57;;;;;;;-0.22;100.00;103412.84;4980353;28;20034;-80
2023/01/24 09:31:12;;;;;;;22.20;10.33;;;;;;;-0.22;100.00;103413.75;4979161;28;20046;-80
2023/01/24 09:33:39;;;;;;;20.30;11.30;;;;;;;-0.32;100.00;103417.44;4962748;28;20037;-81
2023/01/24 09:36:23;;;;;;;21.85;10.02;;;;;;;-0.12;100.00;103416.19;4962959;28;20065;-80
2023/01/24 09:38:50;;;;;;;28.23;10.93;;;;;;;-0.02;99.65;103410.78;4960513;28;20058;-79
2023/01/24 09:41:41;;;;;;;22.67;9.73;;;;;;;-0.09;100.00;103405.97;4962563;28;20700;-80
2023/01/24 09:44:16;;;;;;;18.60;9.70;;;;;;;-0.04;100.00;103408.91;4985183;28;20038;-80
2023/01/24 09:46:48;;;;;;;24.37;10.90;;;;;;;-0.17;100.00;103404.59;4960341;28;20042;-80
2023/01/24 09:49:20;;;;;;;19.47;10.13;;;;;;;-0.15;100.00;103405.59;4969984;28;20111;-81
2023/01/24 09:51:51;;;;;;;22.20;10.03;;;;;;;-0.13;100.00;103409.19;4990383;28;20118;-80
2023/01/24 09:54:29;;;;;;;23.70;10.53;;;;;;;0.03;100.00;103413.69;4994850;28;20034;-81
2023/01/24 09:56:56;;;;;;;22.80;10.13;;;;;;;-0.05;100.00;103410.59;4984932;28;20069;-79
2023/01/24 09:59:33;;;;;;;24.30;10.73;;;;;;;0.06;100.00;103407.81;4978685;28;20679;-80
2023/01/24 10:02:01;;;;;;;15.33;8.77;;;;;;;-0.21;100.00;103410.34;4978640;28;20033;-79
2023/01/24 10:04:31;;;;;;;20.23;9.23;;;;;;;-0.12;99.90;103418.78;4962327;28;20491;-80
2023/01/24 10:07:23;;;;;;;25.13;12.77;;;;;;;0.12;100.00;103409.13;4967489;28;20042;-79
2023/01/24 10:09:58;;;;;;;23.40;10.17;;;;;;;0.16;100.00;103408.50;4979305;28;20121;-80
2023/01/24 10:12:32;;;;;;;17.00;9.37;;;;;;;0.12;100.00;103400.41;4981892;28;20046;-80
2023/01/24 10:15:13;;;;;;;20.42;8.23;;;;;;;0.23;100.00;103404.59;4997948;28;20042;-79
2023/01/24 10:17:49;;;;;;;20.77;9.67;;;;;;;0.21;100.00;103393.22;4978527;28;20587;-80
2023/01/24 10:20:30;;;;;;;16.83;9.03;;;;;;;0.18;100.00;103393.03;4980800;28;20100;-79
2023/01/24 10:23:12;;;;;;;18.53;9.90;;;;;;;0.19;100.00;103403.53;4966011;28;20494;-79
2023/01/24 10:25:50;;;;;;;21.37;8.63;;;;;;;0.35;100.00;103407.13;4998179;28;20041;-81
2023/01/24 10:28:33;;;;;;;17.50;8.93;;;;;;;0.53;100.00;103404.00;4976301;28;20587;-80
2023/01/24 10:31:05;;;;;;;18.27;10.27;;;;;;;0.43;100.00;103405.94;4988305;28;20124;-81
2023/01/24 10:33:37;;;;;;;14.40;8.87;;;;;;;0.39;100.00;103401.31;4978921;28;20038;-82
2023/01/24 10:36:25;;;;;;;15.63;8.23;;;;;;;0.35;100.00;103392.44;4982290;28;20038;-80
2023/01/24 10:38:52;;;;;;;16.07;8.63;;;;;;;0.36;100.00;103407.22;4997166;28;20073;-80
2023/01/24 10:41:22;;;;;;;16.90;9.50;;;;;;;0.32;99.42;103397.41;4965295;28;20133;-80
2023/01/24 10:44:12;;;;;;;16.80;8.17;;;;;;;0.40;100.00;103396.19;4981230;28;20499;-80
2023/01/24 10:47:05;;;;;;;12.53;7.70;;;;;;;0.07;98.93;103389.69;4980518;28;20040;-80
2023/01/24 10:49:36;;;;;;;15.07;7.13;;;;;;;0.16;100.00;103381.59;4972685;28;20096;-80
2023/01/24 10:52:12;;;;;;;16.63;9.13;;;;;;;-0.15;100.00;103395.19;4967201;28;20140;-80
2023/01/24 10:54:46;;;;;;;17.87;9.90;;;;;;;0.13;99.96;103392.72;4994579;28;20056;-81
2023/01/24 10:57:33;;;;;;;13.40;8.40;;;;;;;-0.14;100.00;103389.19;4994963;28;20040;-81
2023/01/24 11:00:27;;;;;;;13.27;7.33;;;;;;;0.22;100.00;103388.13;4971713;28;20530;-81
2023/01/24 11:02:59;;;;;;;15.57;7.93;;;;;;;0.42;100.00;103389.44;4976527;28;20049;-80
2023/01/24 11:05:37;;;;;;;14.03;7.87;;;;;;;0.40;100.00;103375.41;4979245;28;20072;-80
2023/01/24 11:08:04;;;;;;;15.27;8.20;;;;;;;0.44;100.00;103376.50;4993982;28;21281;-81
2023/01/24 11:10:36;;;;;;;11.97;7.03;;;;;;;0.48;100.00;103376.78;4983903;28;20043;-79
2023/01/24 11:13:25;;;;;;;14.50;7.07;;;;;;;0.56;100.00;103369.47;4962056;28;20746;-79
2023/01/24 11:15:55;;;;;;;13.60;7.83;;;;;;;0.57;100.00;103368.66;4977347;28;20046;-80
2023/01/24 11:18:27;;;;;;;14.50;7.70;;;;;;;0.54;100.00;103364.19;4981071;28;20038;-80
2023/01/24 11:21:17;;;;;;;12.40;7.43;;;;;;;0.71;100.00;103366.94;4996871;28;20088;-81
2023/01/24 11:23:44;;;;;;;13.13;7.97;;;;;;;0.59;100.00;103364.50;4996809;28;20478;-82
2023/01/24 11:26:22;;;;;;;14.10;7.97;;;;;;;0.76;97.53;103360.34;4995247;28;20065;-80
2023/01/24 11:28:56;;;;;;;13.00;7.13;;;;;;;0.84;96.93;103351.28;4964341;28;20049;-80
2023/01/24 11:31:35;;;;;;;11.20;6.80;;;;;;;0.63;97.56;103352.56;4993222;28;20503;-80
2023/01/24 11:34:14;;;;;;;14.63;7.67;;;;;;;0.63;100.00;103358.66;4974693;28;20042;-80
2023/01/24 11:37:04;;;;;;;12.40;7.43;;;;;;;0.82;99.43;103347.69;4990820;28;20084;-80
2023/01/24 11:39:39;;;;;;;10.73;7.37;;;;;;;0.75;100.00;103337.72;4987010;28;20041;-79
2023/01/24 11:42:13;;;;;;;12.93;7.10;;;;;;;0.75;99.63;103340.31;4977109;28;20042;-81
2023/01/24 11:44:57;;;;;;;15.57;7.57;;;;;;;0.89;96.28;103344.69;5006893;28;20052;-79
2023/01/24 11:47:36;;;;;;;12.98;7.38;;;;;;;1.03;96.87;103348.16;4975484;28;20373;-79
2023/01/24 11:50:26;;;;;;;12.57;7.60;;;;;;;0.89;98.16;103342.06;4959159;28;20046;-80
2023/01/24 11:53:09;;;;;;;14.10;7.70;;;;;;;0.87;96.56;103340.19;4979676;28;20049;-81
2023/01/24 11:55:46;;;;;;;12.17;7.07;;;;;;;0.77;96.47;103339.63;4977965;28;20046;-81
2023/01/24 11:58:44;;;;;;;11.90;7.17;;;;;;;0.75;96.68;103335.09;4961045;28;20038;-81